»·PEaware :: SWA1 KLAX-KLAS

SWA1 :: KLAX-KLAS

FLIGHT INFORMATION

Flight Status: Arrived
Operator:
Southwest Airlines
More flights by this operator :: More flights under this callsign
Pilot: Jason G. (14075)
Aircraft: BOEING 737-800
(B738)
More flights by this aircraft type
Origin: KLAX Los Angeles Intl
United States
Destination: KLAS McCarran Intl
United States
More flights between these airports :: More routes between these airports
Route: +ORCKA3 MISEN KEPEC6
File this flight plan on PilotEdge
Remarks: PBN / A1B1C1D1S1S2 NAV / RNVD1E2A1 REG / N8301J RMK / SIMBRIEF
Altitude:
(Current/Filed)
26,000ft
Speed:
(Current/Filed)
461kts
Departed: 09-Oct-18 02:22 PM
Arrived: 09-Oct-18 03:18 PM
Distance/Time
Traveled:
205nm/0:56
Distance/Time
To Go:
Arrived

Flight Plot

Page will automatically refresh every two minutes.

Flight plan parsing failed; only flown route is shown


Map Options




Map Legend


Flown Route
Filed Route
Departure Airport
Arrival Airport
Navaid (VOR, NDB)
Fix

Horizontal Profiles

Position Reports

Time Latitude Longitude Heading Altitude Ground
Speed
09-Oct-18 14:01 33.946948 -118.404906 115 119ft 0kts
09-Oct-18 14:02 33.946948 -118.404906 115 119ft 0kts
09-Oct-18 14:03 33.946948 -118.404906 115 119ft 0kts
09-Oct-18 14:04 33.946948 -118.404906 115 119ft 0kts
09-Oct-18 14:05 33.946948 -118.404906 115 119ft 0kts
09-Oct-18 14:06 33.946948 -118.404906 115 119ft 0kts
09-Oct-18 14:07 33.946948 -118.404906 115 119ft 0kts
09-Oct-18 14:08 33.946948 -118.404906 115 119ft 0kts
09-Oct-18 14:09 33.946948 -118.404906 115 119ft 0kts
09-Oct-18 14:10 33.946948 -118.404906 115 119ft 0kts
09-Oct-18 14:11 33.946948 -118.404906 115 119ft 0kts
09-Oct-18 14:12 33.946948 -118.404906 115 119ft 0kts
09-Oct-18 14:13 33.946948 -118.404906 115 119ft 0kts
09-Oct-18 14:14 33.947156 -118.405467 92 119ft 2kts
09-Oct-18 14:15 33.946843 -118.405762 353 119ft 0kts
09-Oct-18 14:16 33.946843 -118.405762 354 119ft 0kts
09-Oct-18 14:17 33.946843 -118.405762 354 119ft 0kts
09-Oct-18 14:18 33.946843 -118.405762 354 119ft 0kts
09-Oct-18 14:19 33.946843 -118.405762 354 119ft 0kts
09-Oct-18 14:20 33.947004 -118.405783 353 119ft 8kts
09-Oct-18 14:21 33.949217 -118.401870 29 116ft 0kts
09-Oct-18 14:22 33.949217 -118.401870 29 116ft 0kts
09-Oct-18 14:23 33.950041 -118.402857 260 116ft 1kts
09-Oct-18 14:24 33.947980 -118.422547 261 206ft 160kts
09-Oct-18 14:25 33.941897 -118.476582 256 1420ft 205kts
09-Oct-18 14:26 33.934979 -118.547896 263 2542ft 234kts
09-Oct-18 14:27 33.928510 -118.619570 263 4470ft 208kts
09-Oct-18 14:28 33.918566 -118.682058 229 4988ft 237kts
09-Oct-18 14:29 33.882450 -118.663206 84 6962ft 214kts
09-Oct-18 14:30 33.896049 -118.594060 74 8170ft 216kts
09-Oct-18 14:31 33.911729 -118.521464 74 9719ft 266kts
09-Oct-18 14:32 33.930674 -118.436956 64 9616ft 293kts
09-Oct-18 14:33 33.975686 -118.355139 54 12036ft 327kts
09-Oct-18 14:34 34.016202 -118.284208 54 14656ft 340kts
09-Oct-18 14:35 34.068935 -118.191549 53 17674ft 355kts
09-Oct-18 14:36 34.117915 -118.105136 52 20007ft 369kts
09-Oct-18 14:37 34.172348 -118.008745 52 21480ft 376kts
09-Oct-18 14:38 34.220114 -117.923903 52 23362ft 387kts
09-Oct-18 14:39 34.279461 -117.818193 51 25436ft 399kts
09-Oct-18 14:40 34.342132 -117.706477 50 25941ft 423kts
09-Oct-18 14:41 34.412533 -117.587674 50 25938ft 442kts
09-Oct-18 14:42 34.482515 -117.469364 50 25938ft 443kts
09-Oct-18 14:43 34.549998 -117.354901 50 25938ft 443kts
09-Oct-18 14:44 34.616949 -117.240974 50 25931ft 443kts
09-Oct-18 14:45 34.688088 -117.119515 50 25931ft 443kts
09-Oct-18 14:46 34.756419 -117.002487 50 25908ft 454kts
09-Oct-18 14:47 34.820920 -116.891687 50 25889ft 464kts
09-Oct-18 14:48 34.893220 -116.767001 50 25887ft 466kts
09-Oct-18 14:49 34.961329 -116.648872 49 25887ft 433kts
09-Oct-18 14:50 35.030064 -116.529579 48 25894ft 431kts
09-Oct-18 14:51 35.102094 -116.425705 40 25088ft 414kts
09-Oct-18 14:52 35.164034 -116.345699 40 23659ft 391kts
09-Oct-18 14:53 35.225143 -116.266766 41 22137ft 377kts
09-Oct-18 14:54 35.292782 -116.179215 41 20380ft 358kts
09-Oct-18 14:55 35.358607 -116.093856 42 18618ft 349kts
09-Oct-18 14:56 35.418451 -116.016080 43 16976ft 341kts
09-Oct-18 14:57 35.479584 -115.936448 44 15253ft 331kts
09-Oct-18 14:58 35.539686 -115.857978 44 14161ft 325kts
09-Oct-18 14:59 35.598768 -115.780661 44 13636ft 321kts
09-Oct-18 15:00 35.657117 -115.704130 44 13113ft 318kts
09-Oct-18 15:01 35.714507 -115.629830 44 13028ft 317kts
09-Oct-18 15:02 35.783251 -115.574154 5 13033ft 309kts
09-Oct-18 15:03 35.865836 -115.568512 359 13026ft 308kts
09-Oct-18 15:04 35.950708 -115.559994 20 13016ft 312kts
09-Oct-18 15:05 36.000696 -115.476753 68 12048ft 315kts
09-Oct-18 15:06 36.029265 -115.384027 70 11017ft 285kts
09-Oct-18 15:07 36.027540 -115.302057 97 10363ft 283kts
09-Oct-18 15:08 36.020004 -115.208449 96 9143ft 266kts
09-Oct-18 15:09 36.014159 -115.126637 96 8267ft 253kts
09-Oct-18 15:10 36.008475 -115.040554 96 6909ft 247kts
09-Oct-18 15:11 36.003441 -114.957238 96 5998ft 242kts
09-Oct-18 15:12 35.999198 -114.887837 96 5303ft 242kts
09-Oct-18 15:13 36.020677 -114.813528 356 5013ft 232kts
09-Oct-18 15:14 36.051791 -114.853603 281 4999ft 203kts
09-Oct-18 15:15 36.065322 -114.922654 280 4989ft 165kts
09-Oct-18 15:16 36.071728 -114.967249 272 4803ft 157kts
09-Oct-18 15:17 36.072325 -115.022667 275 3316ft 170kts
09-Oct-18 15:18 36.073869 -115.065645 266 2697ft 143kts
09-Oct-18 15:19 36.073703 -115.114287 266 2243ft 143kts
09-Oct-18 15:20 36.073570 -115.147101 272 2107ft 27kts
09-Oct-18 15:21 36.074468 -115.149936 296 2117ft 0kts
09-Oct-18 15:22 36.078029 -115.151704 76 2118ft 21kts
09-Oct-18 15:23 36.079967 -115.148608 333 2102ft 3kts
09-Oct-18 15:24 36.081365 -115.147869 64 2096ft 0kts
09-Oct-18 15:25 36.081365 -115.147869 64 2096ft 0kts

Navigation Log

Ident Type
Flight plan parsing failed, navigation log unavailable